Skip Navigation Links Skip Navigation Links

Current Weather

Yeovilton, United Kingdom

For information only: do not use for flight planning or navigation.
Latest weather
Observation time Friday, December 3, 2021 8:50 AM GMT
Local time Friday, December 3, 2021 9:39 AM GMT
Flight conditions Instrument Meteorological Conditions
Winds
Wind direction West-Northwest (290°)
Wind speed 5 mph
Visibility 6.2 mi.
Sky condition
Ceiling 800 ft. broken clouds
Cloud layer few clouds 600 ft.
Cloud layer broken clouds 800 ft.
Cloud layer scattered clouds 1,500 ft.
Cloud layer broken clouds 4,000 ft.
Temperature 48°F
Dewpoint 46°F
Altimeter 29.68 in.Hg
Derived measurements
Relative humidity 93%
Wind chill 46°F
Density altitude -284 ft.
Remarks
Temporarily.
METAR EGDY 030850Z 29004KT 9999 FEW006 BKN008 BKN040 09/08 Q1005 TEMPO FEW008 SCT015 RMK GRN TEMPO WHT

Settings

Location code

InnerDrive.Weather 4.0.6770.0 Release CLR 4.0.30319.42000
Copyright ©2018 Inner Drive Technology. All rights reserved. Portions Copyright ©1986-2018 David Braverman.

Find weather

Site navigation


Skip Navigation Links

Place info

Page info

PayPal - The safer, easier way to pay online!

Return home.

Copyright ©2021 Inner Drive Technology. Purveyors of fine, hand-crafted computer software. Page printed 2021-12-03T09:39:35 UTC.